sensor_id;sensor_type;location;lat;lon;timestamp;temperature;humidity
21331;DHT22;10824;51.632;4.950;2023-09-19T00:00:44;16.00;99.90
21331;DHT22;10824;51.632;4.950;2023-09-19T00:03:14;16.00;99.90
21331;DHT22;10824;51.632;4.950;2023-09-19T00:05:42;16.00;99.90
21331;DHT22;10824;51.632;4.950;2023-09-19T00:08:12;16.00;99.90
21331;DHT22;10824;51.632;4.950;2023-09-19T00:10:43;16.00;99.90
21331;DHT22;10824;51.632;4.950;2023-09-19T00:13:11;16.00;99.90
21331;DHT22;10824;51.632;4.950;2023-09-19T00:15:45;16.00;99.90
21331;DHT22;10824;51.632;4.950;2023-09-19T00:18:19;16.00;1.00
21331;DHT22;10824;51.632;4.950;2023-09-19T00:20:51;15.90;84.30
21331;DHT22;10824;51.632;4.950;2023-09-19T00:23:19;15.90;99.90
21331;DHT22;10824;51.632;4.950;2023-09-19T00:25:47;15.90;99.90
21331;DHT22;10824;51.632;4.950;2023-09-19T00:28:15;15.90;99.90
21331;DHT22;10824;51.632;4.950;2023-09-19T00:30:45;15.90;10.50
21331;DHT22;10824;51.632;4.950;2023-09-19T00:33:18;15.90;99.90
21331;DHT22;10824;51.632;4.950;2023-09-19T00:35:50;15.80;1.00
21331;DHT22;10824;51.632;4.950;2023-09-19T00:38:18;15.80;99.90
21331;DHT22;10824;51.632;4.950;2023-09-19T00:40:50;15.80;99.90
21331;DHT22;10824;51.632;4.950;2023-09-19T00:43:21;15.80;62.00
21331;DHT22;10824;51.632;4.950;2023-09-19T00:45:54;15.60;44.80
21331;DHT22;10824;51.632;4.950;2023-09-19T00:48:23;15.60;2.80
21331;DHT22;10824;51.632;4.950;2023-09-19T00:50:55;15.60;1.00
21331;DHT22;10824;51.632;4.950;2023-09-19T00:53:25;15.50;1.00
21331;DHT22;10824;51.632;4.950;2023-09-19T00:55:54;15.50;99.90
21331;DHT22;10824;51.632;4.950;2023-09-19T00:58:23;15.40;99.90
21331;DHT22;10824;51.632;4.950;2023-09-19T01:00:51;15.40;1.00
21331;DHT22;10824;51.632;4.950;2023-09-19T01:03:20;15.40;1.00
21331;DHT22;10824;51.632;4.950;2023-09-19T01:05:48;15.30;1.00
21331;DHT22;10824;51.632;4.950;2023-09-19T01:08:17;15.40;1.00
21331;DHT22;10824;51.632;4.950;2023-09-19T01:11:08;15.30;1.00
21331;DHT22;10824;51.632;4.950;2023-09-19T01:16:44;15.20;1.00
21331;DHT22;10824;51.632;4.950;2023-09-19T01:22:26;15.20;99.90
21331;DHT22;10824;51.632;4.950;2023-09-19T01:30:27;15.10;99.90
21331;DHT22;10824;51.632;4.950;2023-09-19T01:33:00;15.00;99.90
21331;DHT22;10824;51.632;4.950;2023-09-19T01:35:27;15.00;99.90
21331;DHT22;10824;51.632;4.950;2023-09-19T01:37:54;14.90;99.90
21331;DHT22;10824;51.632;4.950;2023-09-19T01:40:22;15.00;99.90
21331;DHT22;10824;51.632;4.950;2023-09-19T01:45:51;15.00;1.00
21331;DHT22;10824;51.632;4.950;2023-09-19T01:51:48;14.80;1.00
21331;DHT22;10824;51.632;4.950;2023-09-19T01:54:27;14.90;1.00
21331;DHT22;10824;51.632;4.950;2023-09-19T01:57:17;14.90;1.00
21331;DHT22;10824;51.632;4.950;2023-09-19T01:59:52;14.80;1.00
21331;DHT22;10824;51.632;4.950;2023-09-19T02:02:21;14.80;1.00
21331;DHT22;10824;51.632;4.950;2023-09-19T02:04:50;14.80;1.00
21331;DHT22;10824;51.632;4.950;2023-09-19T02:07:17;14.80;1.00
21331;DHT22;10824;51.632;4.950;2023-09-19T02:09:44;14.70;1.00
21331;DHT22;10824;51.632;4.950;2023-09-19T02:12:14;14.70;1.00
21331;DHT22;10824;51.632;4.950;2023-09-19T02:14:42;14.70;1.00
21331;DHT22;10824;51.632;4.950;2023-09-19T02:17:09;14.70;99.90
21331;DHT22;10824;51.632;4.950;2023-09-19T02:19:39;14.70;99.90
21331;DHT22;10824;51.632;4.950;2023-09-19T02:22:08;14.70;99.90
21331;DHT22;10824;51.632;4.950;2023-09-19T02:24:37;14.70;99.90
21331;DHT22;10824;51.632;4.950;2023-09-19T02:27:05;14.60;99.90
21331;DHT22;10824;51.632;4.950;2023-09-19T02:29:34;14.60;99.90
21331;DHT22;10824;51.632;4.950;2023-09-19T02:32:02;14.60;99.90
21331;DHT22;10824;51.632;4.950;2023-09-19T02:34:31;14.60;99.90
21331;DHT22;10824;51.632;4.950;2023-09-19T02:36:59;14.60;63.40
21331;DHT22;10824;51.632;4.950;2023-09-19T02:39:27;14.70;99.90
21331;DHT22;10824;51.632;4.950;2023-09-19T02:41:54;14.60;99.90
21331;DHT22;10824;51.632;4.950;2023-09-19T02:44:22;14.60;99.90
21331;DHT22;10824;51.632;4.950;2023-09-19T02:46:50;14.60;99.90
21331;DHT22;10824;51.632;4.950;2023-09-19T02:49:18;14.50;99.90
21331;DHT22;10824;51.632;4.950;2023-09-19T02:51:45;14.50;99.60
21331;DHT22;10824;51.632;4.950;2023-09-19T02:54:14;14.50;58.90
21331;DHT22;10824;51.632;4.950;2023-09-19T02:56:42;14.50;99.90
21331;DHT22;10824;51.632;4.950;2023-09-19T02:59:09;14.50;45.30
21331;DHT22;10824;51.632;4.950;2023-09-19T03:01:40;14.50;81.30
21331;DHT22;10824;51.632;4.950;2023-09-19T03:04:09;14.50;99.90
21331;DHT22;10824;51.632;4.950;2023-09-19T03:06:39;14.40;1.00
21331;DHT22;10824;51.632;4.950;2023-09-19T03:09:06;14.40;99.90
21331;DHT22;10824;51.632;4.950;2023-09-19T03:11:40;14.40;99.90
21331;DHT22;10824;51.632;4.950;2023-09-19T03:14:09;14.40;90.90
21331;DHT22;10824;51.632;4.950;2023-09-19T03:16:37;14.40;99.90
21331;DHT22;10824;51.632;4.950;2023-09-19T03:19:05;14.30;99.90
21331;DHT22;10824;51.632;4.950;2023-09-19T03:21:32;14.30;99.90
21331;DHT22;10824;51.632;4.950;2023-09-19T03:23:59;14.30;99.90
21331;DHT22;10824;51.632;4.950;2023-09-19T03:26:27;14.30;1.00
21331;DHT22;10824;51.632;4.950;2023-09-19T03:28:54;14.20;99.90
21331;DHT22;10824;51.632;4.950;2023-09-19T03:31:21;14.30;99.90
21331;DHT22;10824;51.632;4.950;2023-09-19T03:33:48;14.20;99.90
21331;DHT22;10824;51.632;4.950;2023-09-19T03:36:16;14.20;99.90
21331;DHT22;10824;51.632;4.950;2023-09-19T03:38:43;14.20;1.00
21331;DHT22;10824;51.632;4.950;2023-09-19T03:41:10;14.10;99.90
21331;DHT22;10824;51.632;4.950;2023-09-19T03:43:41;14.20;99.90
21331;DHT22;10824;51.632;4.950;2023-09-19T03:46:09;14.20;1.00
21331;DHT22;10824;51.632;4.950;2023-09-19T03:48:39;14.20;1.00
21331;DHT22;10824;51.632;4.950;2023-09-19T03:51:06;14.10;1.00
21331;DHT22;10824;51.632;4.950;2023-09-19T03:53:33;14.10;1.00
21331;DHT22;10824;51.632;4.950;2023-09-19T03:56:00;14.10;1.00
21331;DHT22;10824;51.632;4.950;2023-09-19T03:58:31;14.10;1.00
21331;DHT22;10824;51.632;4.950;2023-09-19T04:00:58;14.10;1.80
21331;DHT22;10824;51.632;4.950;2023-09-19T04:03:27;14.10;1.00
21331;DHT22;10824;51.632;4.950;2023-09-19T04:06:02;14.00;79.70
21331;DHT22;10824;51.632;4.950;2023-09-19T04:08:29;14.10;97.30
21331;DHT22;10824;51.632;4.950;2023-09-19T04:10:57;14.10;99.90
21331;DHT22;10824;51.632;4.950;2023-09-19T04:13:26;14.10;99.90
21331;DHT22;10824;51.632;4.950;2023-09-19T04:15:53;14.10;99.90
21331;DHT22;10824;51.632;4.950;2023-09-19T04:18:20;14.10;99.90
21331;DHT22;10824;51.632;4.950;2023-09-19T04:20:50;14.10;99.90
21331;DHT22;10824;51.632;4.950;2023-09-19T04:23:18;14.00;99.90
21331;DHT22;10824;51.632;4.950;2023-09-19T04:25:48;14.10;99.90
21331;DHT22;10824;51.632;4.950;2023-09-19T04:28:16;14.10;1.00
21331;DHT22;10824;51.632;4.950;2023-09-19T04:30:43;14.10;1.00
21331;DHT22;10824;51.632;4.950;2023-09-19T04:33:10;14.10;1.00
21331;DHT22;10824;51.632;4.950;2023-09-19T04:35:41;14.10;1.00
21331;DHT22;10824;51.632;4.950;2023-09-19T04:38:09;14.10;1.00
21331;DHT22;10824;51.632;4.950;2023-09-19T04:40:36;14.10;1.00
21331;DHT22;10824;51.632;4.950;2023-09-19T04:43:06;14.10;1.00
21331;DHT22;10824;51.632;4.950;2023-09-19T04:45:35;14.10;1.00
21331;DHT22;10824;51.632;4.950;2023-09-19T04:48:02;14.10;1.00
21331;DHT22;10824;51.632;4.950;2023-09-19T04:50:30;14.20;1.00
21331;DHT22;10824;51.632;4.950;2023-09-19T04:52:57;14.10;1.00
21331;DHT22;10824;51.632;4.950;2023-09-19T04:55:25;14.10;18.60
21331;DHT22;10824;51.632;4.950;2023-09-19T04:57:53;14.10;99.90
21331;DHT22;10824;51.632;4.950;2023-09-19T05:00:22;14.10;99.90
21331;DHT22;10824;51.632;4.950;2023-09-19T05:02:55;14.20;99.90
21331;DHT22;10824;51.632;4.950;2023-09-19T05:05:25;14.20;99.90
21331;DHT22;10824;51.632;4.950;2023-09-19T05:07:53;14.20;99.90
21331;DHT22;10824;51.632;4.950;2023-09-19T05:10:22;14.20;99.90
21331;DHT22;10824;51.632;4.950;2023-09-19T05:12:53;14.20;99.90
21331;DHT22;10824;51.632;4.950;2023-09-19T05:15:21;14.20;99.90
21331;DHT22;10824;51.632;4.950;2023-09-19T05:17:49;14.20;1.00
21331;DHT22;10824;51.632;4.950;2023-09-19T05:20:23;14.20;1.00
21331;DHT22;10824;51.632;4.950;2023-09-19T05:23:01;14.20;1.00
21331;DHT22;10824;51.632;4.950;2023-09-19T05:25:31;14.20;86.20
21331;DHT22;10824;51.632;4.950;2023-09-19T05:27:59;14.30;52.60
21331;DHT22;10824;51.632;4.950;2023-09-19T05:30:26;14.20;99.90
21331;DHT22;10824;51.632;4.950;2023-09-19T05:32:56;14.30;99.90
21331;DHT22;10824;51.632;4.950;2023-09-19T05:35:24;14.30;99.90
21331;DHT22;10824;51.632;4.950;2023-09-19T05:37:53;14.20;1.00
21331;DHT22;10824;51.632;4.950;2023-09-19T05:40:22;14.30;1.00
21331;DHT22;10824;51.632;4.950;2023-09-19T05:42:49;14.30;1.00
21331;DHT22;10824;51.632;4.950;2023-09-19T05:45:17;14.30;1.00
21331;DHT22;10824;51.632;4.950;2023-09-19T05:47:54;14.30;1.00
21331;DHT22;10824;51.632;4.950;2023-09-19T05:50:31;14.30;1.00
21331;DHT22;10824;51.632;4.950;2023-09-19T05:52:58;14.30;1.00
21331;DHT22;10824;51.632;4.950;2023-09-19T05:55:26;14.30;1.00
21331;DHT22;10824;51.632;4.950;2023-09-19T05:57:56;14.30;1.00
21331;DHT22;10824;51.632;4.950;2023-09-19T06:00:24;14.40;1.00
21331;DHT22;10824;51.632;4.950;2023-09-19T06:02:57;14.40;53.00
21331;DHT22;10824;51.632;4.950;2023-09-19T06:05:25;14.30;99.90
21331;DHT22;10824;51.632;4.950;2023-09-19T06:07:59;14.30;99.90
21331;DHT22;10824;51.632;4.950;2023-09-19T06:10:36;14.30;99.90
21331;DHT22;10824;51.632;4.950;2023-09-19T06:13:04;14.30;99.90
21331;DHT22;10824;51.632;4.950;2023-09-19T06:15:32;14.30;99.90
21331;DHT22;10824;51.632;4.950;2023-09-19T06:18:00;14.30;99.90
21331;DHT22;10824;51.632;4.950;2023-09-19T06:20:29;14.30;99.90
21331;DHT22;10824;51.632;4.950;2023-09-19T06:22:57;14.40;99.90
21331;DHT22;10824;51.632;4.950;2023-09-19T06:25:24;14.30;99.90
21331;DHT22;10824;51.632;4.950;2023-09-19T06:27:52;14.30;1.00
21331;DHT22;10824;51.632;4.950;2023-09-19T06:30:22;14.30;1.00
21331;DHT22;10824;51.632;4.950;2023-09-19T06:32:58;14.40;1.00
21331;DHT22;10824;51.632;4.950;2023-09-19T06:35:26;14.30;1.00
21331;DHT22;10824;51.632;4.950;2023-09-19T06:37:56;14.40;1.00
21331;DHT22;10824;51.632;4.950;2023-09-19T06:40:26;14.40;1.00
21331;DHT22;10824;51.632;4.950;2023-09-19T06:42:55;14.40;1.00
21331;DHT22;10824;51.632;4.950;2023-09-19T06:45:25;14.40;1.00
21331;DHT22;10824;51.632;4.950;2023-09-19T06:47:54;14.40;1.00
21331;DHT22;10824;51.632;4.950;2023-09-19T06:50:26;14.40;1.00
21331;DHT22;10824;51.632;4.950;2023-09-19T06:52:55;14.40;1.00
21331;DHT22;10824;51.632;4.950;2023-09-19T06:55:25;14.40;1.00
21331;DHT22;10824;51.632;4.950;2023-09-19T06:57:55;14.50;99.90
21331;DHT22;10824;51.632;4.950;2023-09-19T07:00:26;14.50;99.90
21331;DHT22;10824;51.632;4.950;2023-09-19T07:02:58;14.60;99.90
21331;DHT22;10824;51.632;4.950;2023-09-19T07:05:28;14.60;99.90
21331;DHT22;10824;51.632;4.950;2023-09-19T07:07:56;14.60;99.90
21331;DHT22;10824;51.632;4.950;2023-09-19T07:10:26;14.60;99.90
21331;DHT22;10824;51.632;4.950;2023-09-19T07:13:02;14.70;99.90
21331;DHT22;10824;51.632;4.950;2023-09-19T07:15:31;14.70;99.90
21331;DHT22;10824;51.632;4.950;2023-09-19T07:18:00;14.80;99.90
21331;DHT22;10824;51.632;4.950;2023-09-19T07:20:28;14.90;99.90
21331;DHT22;10824;51.632;4.950;2023-09-19T07:22:59;14.90;2.70
21331;DHT22;10824;51.632;4.950;2023-09-19T07:25:30;14.90;1.00
21331;DHT22;10824;51.632;4.950;2023-09-19T07:27:58;15.00;1.00
21331;DHT22;10824;51.632;4.950;2023-09-19T07:30:28;15.10;1.00
21331;DHT22;10824;51.632;4.950;2023-09-19T07:32:56;15.10;1.00
21331;DHT22;10824;51.632;4.950;2023-09-19T07:35:24;15.20;1.00
21331;DHT22;10824;51.632;4.950;2023-09-19T07:37:53;15.20;99.90
21331;DHT22;10824;51.632;4.950;2023-09-19T07:40:20;15.30;99.90
21331;DHT22;10824;51.632;4.950;2023-09-19T07:42:48;15.40;99.90
21331;DHT22;10824;51.632;4.950;2023-09-19T07:45:16;15.40;99.90
21331;DHT22;10824;51.632;4.950;2023-09-19T07:47:48;15.50;87.00
21331;DHT22;10824;51.632;4.950;2023-09-19T07:50:18;15.50;1.00
21331;DHT22;10824;51.632;4.950;2023-09-19T07:52:47;15.60;1.00
21331;DHT22;10824;51.632;4.950;2023-09-19T07:55:14;15.60;1.00
21331;DHT22;10824;51.632;4.950;2023-09-19T07:57:47;15.70;1.00
21331;DHT22;10824;51.632;4.950;2023-09-19T08:00:14;15.80;1.00
21331;DHT22;10824;51.632;4.950;2023-09-19T08:02:42;15.80;1.00
21331;DHT22;10824;51.632;4.950;2023-09-19T08:05:11;15.80;99.90
21331;DHT22;10824;51.632;4.950;2023-09-19T08:07:40;15.90;1.00
21331;DHT22;10824;51.632;4.950;2023-09-19T08:10:08;15.90;99.90
21331;DHT22;10824;51.632;4.950;2023-09-19T08:12:40;15.90;99.90
21331;DHT22;10824;51.632;4.950;2023-09-19T08:15:14;15.90;99.90
21331;DHT22;10824;51.632;4.950;2023-09-19T08:17:42;16.00;99.90
21331;DHT22;10824;51.632;4.950;2023-09-19T08:20:19;16.00;55.60
21331;DHT22;10824;51.632;4.950;2023-09-19T08:22:51;16.10;1.00
21331;DHT22;10824;51.632;4.950;2023-09-19T08:25:22;16.20;1.00
21331;DHT22;10824;51.632;4.950;2023-09-19T08:27:50;16.30;1.00
21331;DHT22;10824;51.632;4.950;2023-09-19T08:30:19;16.50;1.00
21331;DHT22;10824;51.632;4.950;2023-09-19T08:33:01;16.50;99.90
21331;DHT22;10824;51.632;4.950;2023-09-19T08:35:31;16.50;99.90
21331;DHT22;10824;51.632;4.950;2023-09-19T08:37:59;16.60;99.90
21331;DHT22;10824;51.632;4.950;2023-09-19T08:40:31;16.90;99.90
21331;DHT22;10824;51.632;4.950;2023-09-19T08:43:00;16.90;1.00
21331;DHT22;10824;51.632;4.950;2023-09-19T08:45:27;17.00;1.00
21331;DHT22;10824;51.632;4.950;2023-09-19T08:48:25;17.00;1.00
21331;DHT22;10824;51.632;4.950;2023-09-19T08:53:27;17.00;44.20
21331;DHT22;10824;51.632;4.950;2023-09-19T08:55:59;17.20;1.00
21331;DHT22;10824;51.632;4.950;2023-09-19T08:58:37;17.20;1.00
21331;DHT22;10824;51.632;4.950;2023-09-19T09:01:08;17.20;1.00
21331;DHT22;10824;51.632;4.950;2023-09-19T09:03:39;17.30;99.90
21331;DHT22;10824;51.632;4.950;2023-09-19T09:06:08;17.40;99.90
21331;DHT22;10824;51.632;4.950;2023-09-19T09:08:42;17.40;99.90
21331;DHT22;10824;51.632;4.950;2023-09-19T09:11:10;17.40;1.00
21331;DHT22;10824;51.632;4.950;2023-09-19T09:13:42;17.30;99.90
21331;DHT22;10824;51.632;4.950;2023-09-19T09:16:09;17.30;99.90
21331;DHT22;10824;51.632;4.950;2023-09-19T09:18:37;17.60;99.90
21331;DHT22;10824;51.632;4.950;2023-09-19T09:21:04;17.70;99.90
21331;DHT22;10824;51.632;4.950;2023-09-19T09:23:31;17.60;99.90
21331;DHT22;10824;51.632;4.950;2023-09-19T09:25:59;17.60;99.90
21331;DHT22;10824;51.632;4.950;2023-09-19T09:28:31;17.50;99.90
21331;DHT22;10824;51.632;4.950;2023-09-19T09:31:01;17.60;3.10
21331;DHT22;10824;51.632;4.950;2023-09-19T09:33:36;17.80;1.00
21331;DHT22;10824;51.632;4.950;2023-09-19T09:36:05;17.80;1.00
21331;DHT22;10824;51.632;4.950;2023-09-19T09:38:45;17.90;99.90
21331;DHT22;10824;51.632;4.950;2023-09-19T09:41:13;18.00;99.90
21331;DHT22;10824;51.632;4.950;2023-09-19T09:43:54;18.00;99.90
21331;DHT22;10824;51.632;4.950;2023-09-19T09:46:22;18.10;1.00
21331;DHT22;10824;51.632;4.950;2023-09-19T09:49:01;18.20;99.90
21331;DHT22;10824;51.632;4.950;2023-09-19T09:52:07;18.30;1.00
21331;DHT22;10824;51.632;4.950;2023-09-19T09:55:01;18.40;1.00
21331;DHT22;10824;51.632;4.950;2023-09-19T09:57:34;18.50;1.00
21331;DHT22;10824;51.632;4.950;2023-09-19T10:00:03;18.60;1.00
21331;DHT22;10824;51.632;4.950;2023-09-19T10:02:39;18.70;99.90
21331;DHT22;10824;51.632;4.950;2023-09-19T10:07:55;18.90;99.90
21331;DHT22;10824;51.632;4.950;2023-09-19T10:10:39;18.80;62.90
21331;DHT22;10824;51.632;4.950;2023-09-19T10:13:14;18.90;99.90
21331;DHT22;10824;51.632;4.950;2023-09-19T10:15:48;19.10;1.00
21331;DHT22;10824;51.632;4.950;2023-09-19T10:18:23;19.30;1.00
21331;DHT22;10824;51.632;4.950;2023-09-19T10:20:51;19.00;99.90
21331;DHT22;10824;51.632;4.950;2023-09-19T10:23:21;18.80;99.90
21331;DHT22;10824;51.632;4.950;2023-09-19T10:25:53;18.90;99.90
21331;DHT22;10824;51.632;4.950;2023-09-19T10:28:22;19.10;99.90
21331;DHT22;10824;51.632;4.950;2023-09-19T10:30:53;19.20;99.90
21331;DHT22;10824;51.632;4.950;2023-09-19T10:33:22;19.00;29.70
21331;DHT22;10824;51.632;4.950;2023-09-19T10:35:54;19.20;1.00
21331;DHT22;10824;51.632;4.950;2023-09-19T10:38:24;19.20;99.90
21331;DHT22;10824;51.632;4.950;2023-09-19T10:40:54;19.30;99.90
21331;DHT22;10824;51.632;4.950;2023-09-19T10:43:26;19.30;1.00
21331;DHT22;10824;51.632;4.950;2023-09-19T10:45:53;19.30;1.00
21331;DHT22;10824;51.632;4.950;2023-09-19T10:48:24;19.40;99.90
21331;DHT22;10824;51.632;4.950;2023-09-19T10:51:16;19.40;91.70
21331;DHT22;10824;51.632;4.950;2023-09-19T10:53:53;19.40;1.00
21331;DHT22;10824;51.632;4.950;2023-09-19T10:56:26;19.60;1.00
21331;DHT22;10824;51.632;4.950;2023-09-19T10:59:11;19.60;1.00
21331;DHT22;10824;51.632;4.950;2023-09-19T11:01:45;19.60;1.00
21331;DHT22;10824;51.632;4.950;2023-09-19T11:07:06;19.90;99.90
21331;DHT22;10824;51.632;4.950;2023-09-19T11:09:50;20.10;99.90
21331;DHT22;10824;51.632;4.950;2023-09-19T11:14:59;20.30;70.90
21331;DHT22;10824;51.632;4.950;2023-09-19T11:17:35;20.10;99.90
21331;DHT22;10824;51.632;4.950;2023-09-19T11:28:30;20.40;61.60
21331;DHT22;10824;51.632;4.950;2023-09-19T11:31:00;20.30;87.20
21331;DHT22;10824;51.632;4.950;2023-09-19T11:33:46;20.20;95.10
21331;DHT22;10824;51.632;4.950;2023-09-19T11:36:17;20.10;84.00
21331;DHT22;10824;51.632;4.950;2023-09-19T11:46:28;20.50;99.90
21331;DHT22;10824;51.632;4.950;2023-09-19T11:49:06;20.40;74.40
21331;DHT22;10824;51.632;4.950;2023-09-19T11:51:43;20.50;99.90
21331;DHT22;10824;51.632;4.950;2023-09-19T11:54:12;20.80;86.50
21331;DHT22;10824;51.632;4.950;2023-09-19T11:56:46;20.70;99.90
21331;DHT22;10824;51.632;4.950;2023-09-19T11:59:21;20.50;99.90
21331;DHT22;10824;51.632;4.950;2023-09-19T12:01:56;20.10;99.90
21331;DHT22;10824;51.632;4.950;2023-09-19T12:04:43;19.90;99.90
21331;DHT22;10824;51.632;4.950;2023-09-19T12:07:16;19.80;99.90
21331;DHT22;10824;51.632;4.950;2023-09-19T12:10:04;19.70;99.90
21331;DHT22;10824;51.632;4.950;2023-09-19T12:12:31;19.70;99.90
21331;DHT22;10824;51.632;4.950;2023-09-19T12:15:01;19.70;99.90
21331;DHT22;10824;51.632;4.950;2023-09-19T12:20:05;19.80;99.90
21331;DHT22;10824;51.632;4.950;2023-09-19T12:22:46;19.70;99.90
21331;DHT22;10824;51.632;4.950;2023-09-19T12:25:14;19.80;99.90
21331;DHT22;10824;51.632;4.950;2023-09-19T12:27:46;19.70;99.90
21331;DHT22;10824;51.632;4.950;2023-09-19T12:30:15;19.80;99.90
21331;DHT22;10824;51.632;4.950;2023-09-19T12:32:47;19.70;99.90
21331;DHT22;10824;51.632;4.950;2023-09-19T12:35:33;19.70;99.90
21331;DHT22;10824;51.632;4.950;2023-09-19T12:38:04;19.60;99.90
21331;DHT22;10824;51.632;4.950;2023-09-19T12:40:33;19.70;99.90
21331;DHT22;10824;51.632;4.950;2023-09-19T12:43:03;19.80;99.90
21331;DHT22;10824;51.632;4.950;2023-09-19T12:45:31;19.70;99.90
21331;DHT22;10824;51.632;4.950;2023-09-19T12:48:23;19.70;99.90
21331;DHT22;10824;51.632;4.950;2023-09-19T12:51:03;19.70;99.90
21331;DHT22;10824;51.632;4.950;2023-09-19T12:53:35;19.60;99.90
21331;DHT22;10824;51.632;4.950;2023-09-19T12:56:09;19.60;99.90
21331;DHT22;10824;51.632;4.950;2023-09-19T12:58:49;19.60;99.90
21331;DHT22;10824;51.632;4.950;2023-09-19T13:01:17;19.60;99.90
21331;DHT22;10824;51.632;4.950;2023-09-19T13:03:44;19.60;99.90
21331;DHT22;10824;51.632;4.950;2023-09-19T13:06:13;19.70;99.90
21331;DHT22;10824;51.632;4.950;2023-09-19T13:08:43;19.70;99.90
21331;DHT22;10824;51.632;4.950;2023-09-19T13:11:17;19.80;99.90
21331;DHT22;10824;51.632;4.950;2023-09-19T13:16:21;19.90;99.90
21331;DHT22;10824;51.632;4.950;2023-09-19T13:18:53;19.80;99.90
21331;DHT22;10824;51.632;4.950;2023-09-19T13:21:31;19.70;99.90
21331;DHT22;10824;51.632;4.950;2023-09-19T13:24:25;19.70;99.90
21331;DHT22;10824;51.632;4.950;2023-09-19T13:26:58;19.80;99.90
21331;DHT22;10824;51.632;4.950;2023-09-19T13:29:28;19.90;99.90
21331;DHT22;10824;51.632;4.950;2023-09-19T13:31:56;20.00;99.90
21331;DHT22;10824;51.632;4.950;2023-09-19T13:34:23;19.90;99.90
21331;DHT22;10824;51.632;4.950;2023-09-19T13:36:50;19.90;99.90
21331;DHT22;10824;51.632;4.950;2023-09-19T13:39:17;19.90;99.90
21331;DHT22;10824;51.632;4.950;2023-09-19T13:41:45;19.90;99.90
21331;DHT22;10824;51.632;4.950;2023-09-19T13:44:14;19.90;99.90
21331;DHT22;10824;51.632;4.950;2023-09-19T13:46:43;19.90;99.90
21331;DHT22;10824;51.632;4.950;2023-09-19T13:49:14;20.00;99.90
21331;DHT22;10824;51.632;4.950;2023-09-19T13:51:41;19.90;99.90
21331;DHT22;10824;51.632;4.950;2023-09-19T13:54:11;19.90;99.90
21331;DHT22;10824;51.632;4.950;2023-09-19T13:56:39;19.90;99.90
21331;DHT22;10824;51.632;4.950;2023-09-19T13:59:06;19.90;99.90
21331;DHT22;10824;51.632;4.950;2023-09-19T14:01:34;20.00;99.90
21331;DHT22;10824;51.632;4.950;2023-09-19T14:04:01;19.90;99.90
21331;DHT22;10824;51.632;4.950;2023-09-19T14:06:29;19.90;99.90
21331;DHT22;10824;51.632;4.950;2023-09-19T14:08:56;19.90;99.90
21331;DHT22;10824;51.632;4.950;2023-09-19T14:11:23;19.80;99.90
21331;DHT22;10824;51.632;4.950;2023-09-19T14:13:51;19.80;99.90
21331;DHT22;10824;51.632;4.950;2023-09-19T14:16:22;19.80;99.90
21331;DHT22;10824;51.632;4.950;2023-09-19T14:18:51;19.80;99.90
21331;DHT22;10824;51.632;4.950;2023-09-19T14:21:19;19.70;99.90
21331;DHT22;10824;51.632;4.950;2023-09-19T14:23:47;19.70;99.90
21331;DHT22;10824;51.632;4.950;2023-09-19T14:26:16;19.80;99.90
21331;DHT22;10824;51.632;4.950;2023-09-19T14:28:45;19.80;99.90
21331;DHT22;10824;51.632;4.950;2023-09-19T14:31:12;19.80;99.90
21331;DHT22;10824;51.632;4.950;2023-09-19T14:33:39;19.90;99.90
21331;DHT22;10824;51.632;4.950;2023-09-19T14:36:08;19.90;99.90
21331;DHT22;10824;51.632;4.950;2023-09-19T14:38:37;19.90;99.90
21331;DHT22;10824;51.632;4.950;2023-09-19T14:41:06;19.80;99.90
21331;DHT22;10824;51.632;4.950;2023-09-19T14:43:33;19.80;99.90
21331;DHT22;10824;51.632;4.950;2023-09-19T14:46:07;19.80;99.90
21331;DHT22;10824;51.632;4.950;2023-09-19T14:48:35;19.80;99.90
21331;DHT22;10824;51.632;4.950;2023-09-19T14:51:04;19.70;99.90
21331;DHT22;10824;51.632;4.950;2023-09-19T14:53:32;19.70;99.90
21331;DHT22;10824;51.632;4.950;2023-09-19T14:56:01;19.60;99.90
21331;DHT22;10824;51.632;4.950;2023-09-19T14:58:32;19.60;99.90
21331;DHT22;10824;51.632;4.950;2023-09-19T15:01:10;19.60;99.90
21331;DHT22;10824;51.632;4.950;2023-09-19T15:03:38;19.60;99.90
21331;DHT22;10824;51.632;4.950;2023-09-19T15:06:10;19.50;99.90
21331;DHT22;10824;51.632;4.950;2023-09-19T15:08:42;19.50;99.90
21331;DHT22;10824;51.632;4.950;2023-09-19T15:11:17;19.50;99.90
21331;DHT22;10824;51.632;4.950;2023-09-19T15:13:46;19.60;99.90
21331;DHT22;10824;51.632;4.950;2023-09-19T15:16:13;19.60;99.90
21331;DHT22;10824;51.632;4.950;2023-09-19T15:18:43;19.60;99.90
21331;DHT22;10824;51.632;4.950;2023-09-19T15:21:23;19.60;99.90
21331;DHT22;10824;51.632;4.950;2023-09-19T15:23:54;19.60;99.90
21331;DHT22;10824;51.632;4.950;2023-09-19T15:26:21;19.50;99.90
21331;DHT22;10824;51.632;4.950;2023-09-19T15:28:49;19.50;99.90
21331;DHT22;10824;51.632;4.950;2023-09-19T15:31:17;19.40;99.90
21331;DHT22;10824;51.632;4.950;2023-09-19T15:33:44;19.40;99.90
21331;DHT22;10824;51.632;4.950;2023-09-19T15:36:12;19.40;99.90
21331;DHT22;10824;51.632;4.950;2023-09-19T15:39:07;19.40;99.90
21331;DHT22;10824;51.632;4.950;2023-09-19T15:41:40;19.40;99.90
21331;DHT22;10824;51.632;4.950;2023-09-19T15:44:15;19.40;99.90
21331;DHT22;10824;51.632;4.950;2023-09-19T15:46:44;19.40;99.90
21331;DHT22;10824;51.632;4.950;2023-09-19T15:49:12;19.40;1.00
21331;DHT22;10824;51.632;4.950;2023-09-19T15:51:41;19.40;1.00
21331;DHT22;10824;51.632;4.950;2023-09-19T15:54:14;19.40;1.00
21331;DHT22;10824;51.632;4.950;2023-09-19T15:56:43;19.40;1.00
21331;DHT22;10824;51.632;4.950;2023-09-19T15:59:12;19.30;1.00
21331;DHT22;10824;51.632;4.950;2023-09-19T16:01:41;19.30;1.00
21331;DHT22;10824;51.632;4.950;2023-09-19T16:04:10;19.30;1.00
21331;DHT22;10824;51.632;4.950;2023-09-19T16:06:41;19.30;1.00
21331;DHT22;10824;51.632;4.950;2023-09-19T16:09:08;19.20;35.30
21331;DHT22;10824;51.632;4.950;2023-09-19T16:11:37;19.20;84.50
21331;DHT22;10824;51.632;4.950;2023-09-19T16:14:04;19.20;96.20
21331;DHT22;10824;51.632;4.950;2023-09-19T16:16:36;19.20;35.30
21331;DHT22;10824;51.632;4.950;2023-09-19T16:19:05;19.20;42.60
21331;DHT22;10824;51.632;4.950;2023-09-19T16:21:38;19.10;49.00
21331;DHT22;10824;51.632;4.950;2023-09-19T16:24:08;19.10;51.60
21331;DHT22;10824;51.632;4.950;2023-09-19T16:26:37;19.10;99.90
21331;DHT22;10824;51.632;4.950;2023-09-19T16:29:05;19.10;99.90
21331;DHT22;10824;51.632;4.950;2023-09-19T16:31:33;19.10;99.90
21331;DHT22;10824;51.632;4.950;2023-09-19T16:34:00;19.10;99.90
21331;DHT22;10824;51.632;4.950;2023-09-19T16:36:28;19.10;99.90
21331;DHT22;10824;51.632;4.950;2023-09-19T16:38:55;19.10;99.90
21331;DHT22;10824;51.632;4.950;2023-09-19T16:41:22;19.10;99.90
21331;DHT22;10824;51.632;4.950;2023-09-19T16:43:50;19.10;99.90
21331;DHT22;10824;51.632;4.950;2023-09-19T16:46:18;19.00;99.90